N410TW SULS-SULS
Flight info
| Callsign | N410TW |
|---|---|
| Flight time | 0h 50m |
| Altitude | 6500 |
| Route | DCT SUMU/A055N0120 DCT |
| Aircraft | COL4/L-SDEG/C |
Departure
| Time | 2026-04-26 00:14 |
|---|---|
| Airport | Capitan Corbeta CA Curbelo International Airport (SULS) |
Arrival
| Time | 2026-04-26 01:04 |
|---|---|
| Airport | Capitan Corbeta CA Curbelo International Airport (SULS) |
| Time | Latitude | Longitude | Altitude | Speed | Heading |
|---|---|---|---|---|---|
| 2026-04-26 00:03 | -34.86252 | -55.09631 | 91 ft | 0 kts | 348° |
| 2026-04-26 00:09 | -34.86249 | -55.09623 | 91 ft | 1 kts | 142° |
| 2026-04-26 00:09 | -34.86266 | -55.09628 | 92 ft | 5 kts | 201° |
| 2026-04-26 00:09 | -34.86284 | -55.09657 | 91 ft | 3 kts | 212° |
| 2026-04-26 00:10 | -34.86293 | -55.09654 | 91 ft | 1 kts | 115° |
| 2026-04-26 00:10 | -34.86300 | -55.09627 | 91 ft | 7 kts | 106° |
| 2026-04-26 00:10 | -34.86336 | -55.09549 | 92 ft | 9 kts | 174° |
| 2026-04-26 00:10 | -34.86373 | -55.09517 | 92 ft | 5 kts | 114° |
| 2026-04-26 00:11 | -34.86389 | -55.09479 | 94 ft | 5 kts | 116° |
| 2026-04-26 00:11 | -34.86398 | -55.09454 | 92 ft | 0 kts | 114° |
| 2026-04-26 00:11 | -34.86402 | -55.09447 | 95 ft | 5 kts | 119° |
| 2026-04-26 00:12 | -34.86417 | -55.09372 | 92 ft | 9 kts | 47° |
| 2026-04-26 00:12 | -34.86392 | -55.09364 | 92 ft | 0 kts | 355° |
| 2026-04-26 00:13 | -34.86334 | -55.09367 | 91 ft | 30 kts | 356° |
| 2026-04-26 00:13 | -34.85914 | -55.09394 | 100 ft | 87 kts | 353° |
| 2026-04-26 00:14 | -34.85274 | -55.09446 | 488 ft | 71 kts | 358° |
| 2026-04-26 00:14 | -34.84705 | -55.09455 | 714 ft | 99 kts | 0° |
| 2026-04-26 00:14 | -34.84028 | -55.09640 | 1100 ft | 106 kts | 314° |
| 2026-04-26 00:14 | -34.83960 | -55.10499 | 1238 ft | 111 kts | 250° |
| 2026-04-26 00:15 | -34.84544 | -55.10985 | 1269 ft | 116 kts | 176° |
| 2026-04-26 00:15 | -34.85348 | -55.10793 | 1098 ft | 121 kts | 174° |
| 2026-04-26 00:15 | -34.86227 | -55.10662 | 855 ft | 129 kts | 177° |
| 2026-04-26 00:15 | -34.87042 | -55.10504 | 764 ft | 94 kts | 128° |
| 2026-04-26 00:16 | -34.87099 | -55.09852 | 533 ft | 83 kts | 56° |
| 2026-04-26 00:16 | -34.86595 | -55.09388 | 167 ft | 106 kts | 17° |
| 2026-04-26 00:16 | -34.85884 | -55.09392 | 96 ft | 96 kts | 359° |
| 2026-04-26 00:16 | -34.85254 | -55.09421 | 90 ft | 90 kts | 2° |
| 2026-04-26 00:17 | -34.84605 | -55.09461 | 419 ft | 101 kts | 359° |
| 2026-04-26 00:17 | -34.83810 | -55.09521 | 694 ft | 114 kts | 355° |
| 2026-04-26 00:17 | -34.83055 | -55.09653 | 1105 ft | 116 kts | 328° |
| 2026-04-26 00:17 | -34.82713 | -55.10440 | 1715 ft | 109 kts | 265° |
| 2026-04-26 00:18 | -34.83093 | -55.11257 | 2135 ft | 122 kts | 231° |
| 2026-04-26 00:18 | -34.83870 | -55.11955 | 2188 ft | 153 kts | 207° |
| 2026-04-26 00:18 | -34.84857 | -55.12547 | 2312 ft | 162 kts | 217° |
| 2026-04-26 00:18 | -34.85468 | -55.13080 | 2414 ft | 160 kts | 225° |
| 2026-04-26 00:19 | -34.85655 | -55.14285 | 2843 ft | 146 kts | 282° |
| 2026-04-26 00:19 | -34.85277 | -55.16076 | 2596 ft | 182 kts | 283° |
| 2026-04-26 00:19 | -34.85119 | -55.17056 | 2692 ft | 167 kts | 279° |
| 2026-04-26 00:19 | -34.85106 | -55.18403 | 2865 ft | 153 kts | 259° |
| 2026-04-26 00:20 | -34.85065 | -55.19637 | 3069 ft | 142 kts | 274° |
| 2026-04-26 00:20 | -34.85244 | -55.20776 | 3280 ft | 137 kts | 257° |
| 2026-04-26 00:20 | -34.85447 | -55.21905 | 3498 ft | 136 kts | 259° |
| 2026-04-26 00:20 | -34.85521 | -55.23044 | 3717 ft | 135 kts | 268° |
| 2026-04-26 00:21 | -34.85567 | -55.24175 | 3943 ft | 133 kts | 268° |
| 2026-04-26 00:21 | -34.85611 | -55.25312 | 4171 ft | 134 kts | 268° |
| 2026-04-26 00:21 | -34.85655 | -55.26455 | 4405 ft | 136 kts | 268° |
| 2026-04-26 00:21 | -34.85701 | -55.27614 | 4641 ft | 137 kts | 268° |
| 2026-04-26 00:22 | -34.85743 | -55.28779 | 4866 ft | 137 kts | 270° |
| 2026-04-26 00:22 | -34.85638 | -55.29915 | 5080 ft | 136 kts | 277° |
| 2026-04-26 00:22 | -34.85513 | -55.31055 | 5305 ft | 136 kts | 278° |
| 2026-04-26 00:22 | -34.85388 | -55.32200 | 5580 ft | 136 kts | 278° |
| 2026-04-26 00:23 | -34.85265 | -55.33342 | 5803 ft | 136 kts | 277° |
| 2026-04-26 00:23 | -34.85137 | -55.34489 | 6027 ft | 137 kts | 277° |
| 2026-04-26 00:23 | -34.85002 | -55.35689 | 6064 ft | 149 kts | 278° |
| 2026-04-26 00:23 | -34.84860 | -55.36960 | 6073 ft | 157 kts | 278° |
| 2026-04-26 00:24 | -34.84710 | -55.38296 | 6074 ft | 161 kts | 278° |
| 2026-04-26 00:24 | -34.84557 | -55.39663 | 6074 ft | 164 kts | 277° |
| 2026-04-26 00:24 | -34.84400 | -55.41046 | 6073 ft | 166 kts | 278° |
| 2026-04-26 00:24 | -34.84244 | -55.42442 | 6073 ft | 167 kts | 278° |
| 2026-04-26 00:25 | -34.84086 | -55.43844 | 6072 ft | 167 kts | 278° |
| 2026-04-26 00:25 | -34.83928 | -55.45247 | 6071 ft | 167 kts | 277° |
| 2026-04-26 00:25 | -34.83768 | -55.46652 | 6072 ft | 167 kts | 277° |
| 2026-04-26 00:25 | -34.83610 | -55.48059 | 6072 ft | 167 kts | 278° |
| 2026-04-26 00:26 | -34.83455 | -55.49443 | 6068 ft | 167 kts | 278° |
| 2026-04-26 00:26 | -34.83298 | -55.50833 | 6066 ft | 165 kts | 278° |
| 2026-04-26 00:26 | -34.83143 | -55.52220 | 6069 ft | 166 kts | 278° |
| 2026-04-26 00:26 | -34.82982 | -55.53617 | 6070 ft | 166 kts | 278° |
| 2026-04-26 00:27 | -34.82818 | -55.55010 | 6068 ft | 165 kts | 278° |
| 2026-04-26 00:27 | -34.82653 | -55.56389 | 6068 ft | 164 kts | 278° |
| 2026-04-26 00:27 | -34.82492 | -55.57765 | 6066 ft | 164 kts | 278° |
| 2026-04-26 00:27 | -34.82327 | -55.59135 | 6065 ft | 163 kts | 278° |
| 2026-04-26 00:28 | -34.82166 | -55.60481 | 6058 ft | 163 kts | 278° |
| 2026-04-26 00:28 | -34.82001 | -55.61848 | 6055 ft | 163 kts | 278° |
| 2026-04-26 00:28 | -34.81837 | -55.63210 | 6054 ft | 163 kts | 278° |
| 2026-04-26 00:28 | -34.81672 | -55.64575 | 6051 ft | 163 kts | 278° |
| 2026-04-26 00:29 | -34.81507 | -55.65940 | 6048 ft | 163 kts | 278° |
| 2026-04-26 00:29 | -34.81341 | -55.67302 | 6045 ft | 163 kts | 278° |
| 2026-04-26 00:29 | -34.81176 | -55.68663 | 6044 ft | 163 kts | 278° |
| 2026-04-26 00:29 | -34.81008 | -55.70034 | 6040 ft | 163 kts | 278° |
| 2026-04-26 00:30 | -34.80842 | -55.71379 | 6038 ft | 163 kts | 278° |
| 2026-04-26 00:30 | -34.80675 | -55.72741 | 6035 ft | 163 kts | 278° |
| 2026-04-26 00:30 | -34.80506 | -55.74105 | 6032 ft | 163 kts | 278° |
| 2026-04-26 00:30 | -34.80337 | -55.75469 | 6030 ft | 163 kts | 278° |
| 2026-04-26 00:31 | -34.80168 | -55.76835 | 6029 ft | 163 kts | 278° |
| 2026-04-26 00:31 | -34.80000 | -55.78198 | 6027 ft | 163 kts | 278° |
| 2026-04-26 00:31 | -34.79831 | -55.79559 | 6026 ft | 162 kts | 278° |
| 2026-04-26 00:31 | -34.79662 | -55.80912 | 6023 ft | 161 kts | 278° |
| 2026-04-26 00:32 | -34.79495 | -55.82248 | 6016 ft | 162 kts | 278° |
| 2026-04-26 00:32 | -34.79321 | -55.83605 | 6013 ft | 162 kts | 278° |
| 2026-04-26 00:32 | -34.78970 | -55.86327 | 6010 ft | 163 kts | 278° |
| 2026-04-26 00:33 | -34.78794 | -55.87693 | 6010 ft | 163 kts | 278° |
| 2026-04-26 00:33 | -34.78618 | -55.89043 | 6009 ft | 163 kts | 278° |
| 2026-04-26 00:33 | -34.78449 | -55.90407 | 6005 ft | 162 kts | 274° |
| 2026-04-26 00:33 | -34.78663 | -55.91742 | 5998 ft | 161 kts | 253° |
| 2026-04-26 00:34 | -34.78995 | -55.93052 | 5994 ft | 162 kts | 253° |
| 2026-04-26 00:34 | -34.79333 | -55.94363 | 5994 ft | 163 kts | 253° |
| 2026-04-26 00:34 | -34.79674 | -55.95674 | 5994 ft | 162 kts | 252° |
| 2026-04-26 00:34 | -34.80148 | -55.96918 | 5992 ft | 162 kts | 249° |
| 2026-04-26 00:35 | -34.80543 | -55.98200 | 5995 ft | 162 kts | 250° |
| 2026-04-26 00:35 | -34.80937 | -55.99480 | 5855 ft | 165 kts | 250° |
| 2026-04-26 00:35 | -34.81342 | -56.00797 | 5603 ft | 167 kts | 250° |
| 2026-04-26 00:35 | -34.81751 | -56.02126 | 5346 ft | 167 kts | 250° |
| 2026-04-26 00:36 | -34.82175 | -56.03426 | 5049 ft | 163 kts | 241° |
| 2026-04-26 00:36 | -34.83077 | -56.04227 | 4738 ft | 167 kts | 195° |
| 2026-04-26 00:36 | -34.84199 | -56.04037 | 4364 ft | 160 kts | 154° |
| 2026-04-26 00:36 | -34.85026 | -56.03391 | 3922 ft | 129 kts | 149° |
| 2026-04-26 00:37 | -34.85576 | -56.02629 | 3446 ft | 121 kts | 104° |
| 2026-04-26 00:37 | -34.85385 | -56.01651 | 2868 ft | 122 kts | 57° |
| 2026-04-26 00:37 | -34.84908 | -56.00776 | 2257 ft | 124 kts | 53° |
| 2026-04-26 00:37 | -34.84408 | -55.99918 | 1649 ft | 124 kts | 53° |
| 2026-04-26 00:38 | -34.83916 | -55.99086 | 1117 ft | 118 kts | 53° |
| 2026-04-26 00:38 | -34.83454 | -55.98341 | 1068 ft | 103 kts | 41° |
| 2026-04-26 00:38 | -34.82856 | -55.98292 | 1073 ft | 83 kts | 333° |
| 2026-04-26 00:38 | -34.82379 | -55.98687 | 950 ft | 82 kts | 317° |
| 2026-04-26 00:39 | -34.82049 | -55.99251 | 811 ft | 90 kts | 290° |
| 2026-04-26 00:39 | -34.82081 | -56.00045 | 553 ft | 105 kts | 247° |
| 2026-04-26 00:39 | -34.82476 | -56.00838 | 249 ft | 112 kts | 246° |
| 2026-04-26 00:39 | -34.82919 | -56.01567 | 121 ft | 103 kts | 234° |
| 2026-04-26 00:40 | -34.83327 | -56.02235 | 84 ft | 93 kts | 233° |
| 2026-04-26 00:40 | -34.83692 | -56.02835 | 72 ft | 82 kts | 233° |
| 2026-04-26 00:40 | -34.84047 | -56.03413 | 83 ft | 103 kts | 232° |
| 2026-04-26 00:40 | -34.84537 | -56.04135 | 407 ft | 116 kts | 229° |
| 2026-04-26 00:41 | -34.85112 | -56.04896 | 759 ft | 125 kts | 230° |
| 2026-04-26 00:41 | -34.85656 | -56.05653 | 1060 ft | 113 kts | 217° |
| 2026-04-26 00:41 | -34.86395 | -56.05671 | 1186 ft | 118 kts | 140° |
| 2026-04-26 00:41 | -34.86742 | -56.04847 | 1316 ft | 116 kts | 82° |
| 2026-04-26 00:42 | -34.86298 | -56.04057 | 1499 ft | 110 kts | 50° |
| 2026-04-26 00:42 | -34.85791 | -56.03325 | 1520 ft | 113 kts | 53° |
| 2026-04-26 00:42 | -34.85349 | -56.02503 | 1437 ft | 120 kts | 51° |
| 2026-04-26 00:42 | -34.84800 | -56.01756 | 1477 ft | 116 kts | 44° |
| 2026-04-26 00:43 | -34.84239 | -56.01069 | 1298 ft | 117 kts | 44° |
| 2026-04-26 00:43 | -34.83497 | -56.00639 | 820 ft | 123 kts | 348° |
| 2026-04-26 00:43 | -34.82886 | -56.01220 | 286 ft | 114 kts | 294° |
| 2026-04-26 00:43 | -34.83136 | -56.01912 | 95 ft | 80 kts | 233° |
| 2026-04-26 00:44 | -34.83419 | -56.02392 | 81 ft | 62 kts | 233° |
| 2026-04-26 00:44 | -34.83711 | -56.02867 | 67 ft | 94 kts | 233° |
| 2026-04-26 00:44 | -34.84090 | -56.03457 | 685 ft | 21 kts | 232° |
| 2026-04-26 00:44 | -34.84395 | -56.03899 | 595 ft | 99 kts | 228° |
| 2026-04-26 00:45 | -34.84954 | -56.03958 | 877 ft | 100 kts | 173° |
| 2026-04-26 00:45 | -34.85516 | -56.03406 | 1330 ft | 74 kts | 140° |
| 2026-04-26 00:45 | -34.86065 | -56.03062 | 1523 ft | 109 kts | 145° |
| 2026-04-26 00:45 | -34.86557 | -56.02441 | 2076 ft | 94 kts | 127° |
| 2026-04-26 00:46 | -34.86933 | -56.01737 | 2437 ft | 109 kts | 121° |
| 2026-04-26 00:46 | -34.87085 | -56.00869 | 2904 ft | 108 kts | 76° |
| 2026-04-26 00:46 | -34.86791 | -56.00032 | 3346 ft | 108 kts | 57° |
| 2026-04-26 00:46 | -34.86390 | -55.99267 | 3812 ft | 106 kts | 48° |
| 2026-04-26 00:47 | -34.85894 | -55.98610 | 4259 ft | 105 kts | 50° |
| 2026-04-26 00:47 | -34.85578 | -55.97828 | 4697 ft | 104 kts | 70° |
| 2026-04-26 00:47 | -34.85332 | -55.97007 | 5127 ft | 102 kts | 69° |
| 2026-04-26 00:47 | -34.85093 | -55.96196 | 5495 ft | 109 kts | 68° |
| 2026-04-26 00:48 | -34.84805 | -55.95145 | 5516 ft | 150 kts | 76° |
| 2026-04-26 00:48 | -34.84586 | -55.93814 | 5534 ft | 174 kts | 77° |
| 2026-04-26 00:48 | -34.84330 | -55.92306 | 5513 ft | 191 kts | 78° |
| 2026-04-26 00:48 | -34.84062 | -55.90680 | 5508 ft | 199 kts | 78° |
| 2026-04-26 00:49 | -34.83789 | -55.89008 | 5510 ft | 203 kts | 78° |
| 2026-04-26 00:49 | -34.83640 | -55.88084 | 5509 ft | 204 kts | 78° |
| 2026-04-26 00:49 | -34.83425 | -55.86767 | 5508 ft | 205 kts | 78° |
| 2026-04-26 00:49 | -34.83144 | -55.85064 | 5512 ft | 203 kts | 78° |
| 2026-04-26 00:50 | -34.82868 | -55.83397 | 5510 ft | 199 kts | 78° |
| 2026-04-26 00:50 | -34.82595 | -55.81755 | 5510 ft | 197 kts | 78° |
| 2026-04-26 00:50 | -34.82325 | -55.80124 | 5511 ft | 196 kts | 78° |
| 2026-04-26 00:50 | -34.82055 | -55.78498 | 5511 ft | 196 kts | 78° |
| 2026-04-26 00:51 | -34.81869 | -55.76871 | 5507 ft | 194 kts | 90° |
| 2026-04-26 00:51 | -34.81919 | -55.75233 | 5509 ft | 194 kts | 92° |
| 2026-04-26 00:51 | -34.81980 | -55.73596 | 5511 ft | 194 kts | 93° |
| 2026-04-26 00:51 | -34.82041 | -55.71982 | 5513 ft | 194 kts | 93° |
| 2026-04-26 00:52 | -34.82104 | -55.70343 | 5512 ft | 194 kts | 93° |
| 2026-04-26 00:52 | -34.82166 | -55.68707 | 5515 ft | 194 kts | 93° |
| 2026-04-26 00:52 | -34.82228 | -55.67067 | 5516 ft | 194 kts | 93° |
| 2026-04-26 00:52 | -34.82290 | -55.65430 | 5518 ft | 194 kts | 93° |
| 2026-04-26 00:53 | -34.82352 | -55.63793 | 5516 ft | 194 kts | 93° |
| 2026-04-26 00:53 | -34.82415 | -55.62154 | 5518 ft | 194 kts | 93° |
| 2026-04-26 00:53 | -34.82477 | -55.60512 | 5518 ft | 194 kts | 93° |
| 2026-04-26 00:53 | -34.82538 | -55.58872 | 5520 ft | 194 kts | 93° |
| 2026-04-26 00:54 | -34.82601 | -55.57230 | 5526 ft | 194 kts | 93° |
| 2026-04-26 00:54 | -34.82662 | -55.55610 | 5526 ft | 194 kts | 93° |
| 2026-04-26 00:54 | -34.82722 | -55.53967 | 5525 ft | 194 kts | 93° |
| 2026-04-26 00:54 | -34.82784 | -55.52329 | 5526 ft | 194 kts | 92° |
| 2026-04-26 00:55 | -34.82852 | -55.50692 | 5522 ft | 193 kts | 93° |
| 2026-04-26 00:55 | -34.82920 | -55.49056 | 5521 ft | 192 kts | 93° |
| 2026-04-26 00:55 | -34.82988 | -55.47429 | 5522 ft | 192 kts | 92° |
| 2026-04-26 00:55 | -34.83055 | -55.45804 | 5522 ft | 192 kts | 92° |
| 2026-04-26 00:56 | -34.83121 | -55.44200 | 5523 ft | 192 kts | 93° |
| 2026-04-26 00:56 | -34.83186 | -55.42574 | 5523 ft | 192 kts | 92° |
| 2026-04-26 00:56 | -34.83254 | -55.40948 | 5523 ft | 192 kts | 92° |
| 2026-04-26 00:56 | -34.83319 | -55.39319 | 5520 ft | 192 kts | 93° |
| 2026-04-26 00:57 | -34.83383 | -55.37695 | 5521 ft | 192 kts | 92° |
| 2026-04-26 00:57 | -34.83449 | -55.36065 | 5524 ft | 192 kts | 92° |
| 2026-04-26 00:57 | -34.83648 | -55.34467 | 5519 ft | 191 kts | 106° |
| 2026-04-26 00:57 | -34.84016 | -55.32908 | 5520 ft | 191 kts | 107° |
| 2026-04-26 00:58 | -34.84389 | -55.31351 | 5519 ft | 192 kts | 107° |
| 2026-04-26 00:58 | -34.84757 | -55.29809 | 5505 ft | 192 kts | 107° |
| 2026-04-26 00:58 | -34.85127 | -55.28243 | 5463 ft | 191 kts | 107° |
| 2026-04-26 00:58 | -34.85485 | -55.26731 | 5036 ft | 184 kts | 106° |
| 2026-04-26 00:59 | -34.85849 | -55.25246 | 4537 ft | 182 kts | 109° |
| 2026-04-26 00:59 | -34.86343 | -55.23877 | 4030 ft | 158 kts | 115° |
| 2026-04-26 00:59 | -34.86773 | -55.22766 | 3513 ft | 136 kts | 115° |
| 2026-04-26 00:59 | -34.87175 | -55.21756 | 3022 ft | 129 kts | 116° |
| 2026-04-26 01:00 | -34.87543 | -55.20832 | 2706 ft | 120 kts | 115° |
| 2026-04-26 01:00 | -34.87909 | -55.19940 | 2364 ft | 116 kts | 115° |
| 2026-04-26 01:00 | -34.88279 | -55.19053 | 2029 ft | 125 kts | 116° |
| 2026-04-26 01:00 | -34.88703 | -55.18051 | 1722 ft | 138 kts | 115° |
| 2026-04-26 01:01 | -34.89159 | -55.16974 | 1416 ft | 145 kts | 114° |
| 2026-04-26 01:01 | -34.89273 | -55.15785 | 1200 ft | 138 kts | 86° |
| 2026-04-26 01:01 | -34.89271 | -55.14682 | 1193 ft | 123 kts | 87° |
| 2026-04-26 01:01 | -34.89270 | -55.13708 | 1181 ft | 108 kts | 88° |
| 2026-04-26 01:02 | -34.89279 | -55.12869 | 1177 ft | 89 kts | 86° |
| 2026-04-26 01:02 | -34.89277 | -55.12171 | 1181 ft | 78 kts | 76° |
| 2026-04-26 01:02 | -34.89210 | -55.11501 | 1148 ft | 84 kts | 81° |
| 2026-04-26 01:02 | -34.89114 | -55.10740 | 1021 ft | 96 kts | 72° |
| 2026-04-26 01:03 | -34.88682 | -55.10191 | 875 ft | 88 kts | 36° |
| 2026-04-26 01:03 | -34.88279 | -55.09762 | 774 ft | 66 kts | 37° |
| 2026-04-26 01:03 | -34.87882 | -55.09526 | 614 ft | 68 kts | 16° |
| 2026-04-26 01:03 | -34.87398 | -55.09391 | 368 ft | 72 kts | 7° |
| 2026-04-26 01:04 | -34.86927 | -55.09358 | 220 ft | 65 kts | 5° |
| 2026-04-26 01:04 | -34.86492 | -55.09361 | 110 ft | 59 kts | 2° |
| 2026-04-26 01:04 | -34.86207 | -55.09373 | 89 ft | 25 kts | 356° |
| 2026-04-26 01:04 | -34.86108 | -55.09409 | 91 ft | 10 kts | 281° |
| 2026-04-26 01:05 | -34.86105 | -55.09498 | 90 ft | 11 kts | 270° |
| 2026-04-26 01:05 | -34.86135 | -55.09567 | 90 ft | 10 kts | 178° |
| 2026-04-26 01:05 | -34.86192 | -55.09565 | 91 ft | 7 kts | 178° |
| 2026-04-26 01:05 | -34.86233 | -55.09562 | 91 ft | 5 kts | 174° |
| 2026-04-26 01:06 | -34.86286 | -55.09561 | 92 ft | 12 kts | 183° |
| 2026-04-26 01:06 | -34.86303 | -55.09608 | 92 ft | 4 kts | 289° |
| 2026-04-26 01:06 | -34.86274 | -55.09623 | 91 ft | 5 kts | 343° |
| 2026-04-26 01:06 | -34.86250 | -55.09631 | 91 ft | 0 kts | 342° |